sensor_id;sensor_type;location;lat;lon;timestamp;pressure;altitude;pressure_sealevel;temperature;humidity
79230;BME280;68663;49.122;17.544;2023-05-07T00:00:09;99448.63;;;23.93;48.52
79230;BME280;68663;49.122;17.544;2023-05-07T00:02:36;99454.22;;;23.96;48.57
79230;BME280;68663;49.122;17.544;2023-05-07T00:05:03;99450.22;;;23.94;48.67
79230;BME280;68663;49.122;17.544;2023-05-07T00:07:29;99445.78;;;23.93;48.67
79230;BME280;68663;49.122;17.544;2023-05-07T00:09:54;99442.97;;;23.93;48.57
79230;BME280;68663;49.122;17.544;2023-05-07T00:12:19;99451.06;;;23.91;48.73
79230;BME280;68663;49.122;17.544;2023-05-07T00:14:45;99448.63;;;23.93;48.82
79230;BME280;68663;49.122;17.544;2023-05-07T00:17:10;99449.84;;;23.92;48.78
79230;BME280;68663;49.122;17.544;2023-05-07T00:19:36;99447.03;;;23.92;48.54
79230;BME280;68663;49.122;17.544;2023-05-07T00:22:01;99439.78;;;23.91;48.64
79230;BME280;68663;49.122;17.544;2023-05-07T00:24:27;99436.59;;;23.89;48.74
79230;BME280;68663;49.122;17.544;2023-05-07T00:26:52;99438.97;;;23.90;48.74
79230;BME280;68663;49.122;17.544;2023-05-07T00:29:18;99437.38;;;23.89;48.38
79230;BME280;68663;49.122;17.544;2023-05-07T00:31:44;99437.44;;;23.86;48.84
79230;BME280;68663;49.122;17.544;2023-05-07T00:34:09;99440.63;;;23.88;48.74
79230;BME280;68663;49.122;17.544;2023-05-07T00:36:35;99441.06;;;23.86;48.73
79230;BME280;68663;49.122;17.544;2023-05-07T00:39:01;99446.75;;;23.82;48.78
79230;BME280;68663;49.122;17.544;2023-05-07T00:41:28;99447.59;;;23.79;48.81
79230;BME280;68663;49.122;17.544;2023-05-07T00:43:54;99439.94;;;23.80;48.72
79230;BME280;68663;49.122;17.544;2023-05-07T00:46:20;99457.31;;;23.78;49.08
79230;BME280;68663;49.122;17.544;2023-05-07T00:48:46;99444.78;;;23.79;48.88
79230;BME280;68663;49.122;17.544;2023-05-07T00:51:12;99448.47;;;23.76;49.01
79230;BME280;68663;49.122;17.544;2023-05-07T00:53:38;99447.28;;;23.74;48.71
79230;BME280;68663;49.122;17.544;2023-05-07T00:56:04;99442.44;;;23.74;48.87
79230;BME280;68663;49.122;17.544;2023-05-07T00:58:32;99448.09;;;23.74;49.17
79230;BME280;68663;49.122;17.544;2023-05-07T01:00:57;99453.75;;;23.74;48.77
79230;BME280;68663;49.122;17.544;2023-05-07T01:03:23;99441.22;;;23.75;49.00
79230;BME280;68663;49.122;17.544;2023-05-07T01:05:50;99446.06;;;23.75;48.91
79230;BME280;68663;49.122;17.544;2023-05-07T01:08:17;99450.91;;;23.74;48.92
79230;BME280;68663;49.122;17.544;2023-05-07T01:10:43;99447.28;;;23.74;48.95
79230;BME280;68663;49.122;17.544;2023-05-07T01:13:11;99446.50;;;23.73;48.93
79230;BME280;68663;49.122;17.544;2023-05-07T01:15:38;99443.25;;;23.75;48.87
79230;BME280;68663;49.122;17.544;2023-05-07T01:18:03;99440.84;;;23.73;48.81
79230;BME280;68663;49.122;17.544;2023-05-07T01:20:30;99443.28;;;23.71;49.10
79230;BME280;68663;49.122;17.544;2023-05-07T01:22:56;99440.47;;;23.71;48.94
79230;BME280;68663;49.122;17.544;2023-05-07T01:25:23;99436.84;;;23.71;48.98
79230;BME280;68663;49.122;17.544;2023-05-07T01:27:48;99432.84;;;23.68;48.92
79230;BME280;68663;49.122;17.544;2023-05-07T01:30:14;99432.84;;;23.68;48.81
79230;BME280;68663;49.122;17.544;2023-05-07T01:35:18;99432.09;;;23.64;48.83
79230;BME280;68663;49.122;17.544;2023-05-07T01:37:46;99436.16;;;23.63;49.03
79230;BME280;68663;49.122;17.544;2023-05-07T01:40:13;99437.00;;;23.60;48.95
79230;BME280;68663;49.122;17.544;2023-05-07T01:42:38;99432.22;;;23.57;49.04
79230;BME280;68663;49.122;17.544;2023-05-07T01:45:05;99442.69;;;23.57;49.18
79230;BME280;68663;49.122;17.544;2023-05-07T01:47:30;99436.63;;;23.58;49.15
79230;BME280;68663;49.122;17.544;2023-05-07T01:49:57;99438.59;;;23.61;49.05
79230;BME280;68663;49.122;17.544;2023-05-07T01:52:23;99440.19;;;23.62;49.13
79230;BME280;68663;49.122;17.544;2023-05-07T01:54:49;99448.72;;;23.59;49.03
79230;BME280;68663;49.122;17.544;2023-05-07T01:57:15;99444.25;;;23.61;49.18
79230;BME280;68663;49.122;17.544;2023-05-07T01:59:40;99439.47;;;23.58;49.00
79230;BME280;68663;49.122;17.544;2023-05-07T02:02:06;99439.47;;;23.58;49.41
79230;BME280;68663;49.122;17.544;2023-05-07T02:04:31;99442.69;;;23.57;49.26
79230;BME280;68663;49.122;17.544;2023-05-07T02:06:56;99441.50;;;23.54;49.13
79230;BME280;68663;49.122;17.544;2023-05-07T02:09:22;99450.81;;;23.51;49.43
79230;BME280;68663;49.122;17.544;2023-05-07T02:11:48;99452.41;;;23.52;49.34
79230;BME280;68663;49.122;17.544;2023-05-07T02:14:14;99448.38;;;23.53;49.27
79230;BME280;68663;49.122;17.544;2023-05-07T02:16:40;99445.94;;;23.55;49.11
79230;BME280;68663;49.122;17.544;2023-05-07T02:19:06;99442.72;;;23.53;49.26
79230;BME280;68663;49.122;17.544;2023-05-07T02:21:31;99445.16;;;23.51;49.12
79230;BME280;68663;49.122;17.544;2023-05-07T02:23:57;99443.56;;;23.50;49.30
79230;BME280;68663;49.122;17.544;2023-05-07T02:26:22;99451.66;;;23.48;49.30
79230;BME280;68663;49.122;17.544;2023-05-07T02:28:47;99451.25;;;23.49;49.31
79230;BME280;68663;49.122;17.544;2023-05-07T02:31:13;99451.63;;;23.51;49.05
79230;BME280;68663;49.122;17.544;2023-05-07T02:33:38;99446.81;;;23.48;49.20
79230;BME280;68663;49.122;17.544;2023-05-07T02:36:10;99454.09;;;23.46;49.31
79230;BME280;68663;49.122;17.544;2023-05-07T02:38:36;99457.78;;;23.43;49.37
79230;BME280;68663;49.122;17.544;2023-05-07T02:41:01;99449.69;;;23.45;49.39
79230;BME280;68663;49.122;17.544;2023-05-07T02:43:27;99455.72;;;23.47;49.38
79230;BME280;68663;49.122;17.544;2023-05-07T02:46:06;99455.66;;;23.50;49.39
79230;BME280;68663;49.122;17.544;2023-05-07T02:48:32;99458.91;;;23.49;49.20
79230;BME280;68663;49.122;17.544;2023-05-07T02:50:58;99460.13;;;23.48;49.39
79230;BME280;68663;49.122;17.544;2023-05-07T02:53:24;99474.28;;;23.44;49.43
79230;BME280;68663;49.122;17.544;2023-05-07T02:55:58;99474.28;;;23.44;49.45
79230;BME280;68663;49.122;17.544;2023-05-07T02:58:24;99479.13;;;23.44;49.49
79230;BME280;68663;49.122;17.544;2023-05-07T03:00:50;99478.28;;;23.47;49.46
79230;BME280;68663;49.122;17.544;2023-05-07T03:03:15;99480.25;;;23.50;49.36
79230;BME280;68663;49.122;17.544;2023-05-07T03:05:41;99482.28;;;23.49;49.43
79230;BME280;68663;49.122;17.544;2023-05-07T03:08:07;99489.56;;;23.47;49.39
79230;BME280;68663;49.122;17.544;2023-05-07T03:10:32;99484.78;;;23.44;49.36
79230;BME280;68663;49.122;17.544;2023-05-07T03:12:58;99486.00;;;23.43;49.37
79230;BME280;68663;49.122;17.544;2023-05-07T03:15:24;99490.00;;;23.45;49.25
79230;BME280;68663;49.122;17.544;2023-05-07T03:17:49;99494.47;;;23.43;49.16
79230;BME280;68663;49.122;17.544;2023-05-07T03:20:14;99488.03;;;23.42;49.25
79230;BME280;68663;49.122;17.544;2023-05-07T03:22:40;99492.00;;;23.45;49.05
79230;BME280;68663;49.122;17.544;2023-05-07T03:25:06;99489.56;;;23.47;49.20
79230;BME280;68663;49.122;17.544;2023-05-07T03:27:32;99490.41;;;23.44;49.15
79230;BME280;68663;49.122;17.544;2023-05-07T03:29:58;99493.25;;;23.44;49.26
79230;BME280;68663;49.122;17.544;2023-05-07T03:32:23;99496.06;;;23.44;49.23
79230;BME280;68663;49.122;17.544;2023-05-07T03:34:48;99498.09;;;23.40;49.33
79230;BME280;68663;49.122;17.544;2023-05-07T03:37:14;99498.91;;;23.40;49.33
79230;BME280;68663;49.122;17.544;2023-05-07T03:39:39;99500.09;;;23.43;49.24
79230;BME280;68663;49.122;17.544;2023-05-07T03:42:05;99506.91;;;23.45;49.14
79230;BME280;68663;49.122;17.544;2023-05-07T03:44:30;99510.53;;;23.46;49.06
79230;BME280;68663;49.122;17.544;2023-05-07T03:46:55;99507.72;;;23.46;49.04
79230;BME280;68663;49.122;17.544;2023-05-07T03:49:21;99517.41;;;23.45;49.38
79230;BME280;68663;49.122;17.544;2023-05-07T03:51:46;99524.69;;;23.42;49.36
79230;BME280;68663;49.122;17.544;2023-05-07T03:54:12;99523.50;;;23.40;49.44
79230;BME280;68663;49.122;17.544;2023-05-07T03:56:37;99521.88;;;23.39;49.48
79230;BME280;68663;49.122;17.544;2023-05-07T03:59:02;99526.31;;;23.40;49.44
79230;BME280;68663;49.122;17.544;2023-05-07T04:01:28;99523.91;;;23.42;49.24
79230;BME280;68663;49.122;17.544;2023-05-07T04:03:53;99531.53;;;23.45;49.35
79230;BME280;68663;49.122;17.544;2023-05-07T04:06:19;99528.69;;;23.45;49.18
79230;BME280;68663;49.122;17.544;2023-05-07T04:08:44;99531.13;;;23.43;49.19
79230;BME280;68663;49.122;17.544;2023-05-07T04:11:10;99528.31;;;23.43;49.33
79230;BME280;68663;49.122;17.544;2023-05-07T04:13:35;99540.41;;;23.43;49.08
79230;BME280;68663;49.122;17.544;2023-05-07T04:16:05;99548.06;;;23.43;49.03
79230;BME280;68663;49.122;17.544;2023-05-07T04:18:30;99544.88;;;23.41;49.11
79230;BME280;68663;49.122;17.544;2023-05-07T04:20:56;99547.66;;;23.44;49.08
79230;BME280;68663;49.122;17.544;2023-05-07T04:23:22;99550.06;;;23.46;49.14
79230;BME280;68663;49.122;17.544;2023-05-07T04:25:47;99551.28;;;23.45;49.03
79230;BME280;68663;49.122;17.544;2023-05-07T04:28:12;99555.69;;;23.46;49.02
79230;BME280;68663;49.122;17.544;2023-05-07T04:30:38;99551.28;;;23.45;49.11
79230;BME280;68663;49.122;17.544;2023-05-07T04:33:04;99552.13;;;23.42;49.10
79230;BME280;68663;49.122;17.544;2023-05-07T04:35:29;99553.34;;;23.41;49.11
79230;BME280;68663;49.122;17.544;2023-05-07T04:37:55;99552.13;;;23.42;49.13
79230;BME280;68663;49.122;17.544;2023-05-07T04:40:20;99545.25;;;23.43;49.04
79230;BME280;68663;49.122;17.544;2023-05-07T04:42:46;99558.94;;;23.44;49.17
79230;BME280;68663;49.122;17.544;2023-05-07T04:45:11;99552.91;;;23.42;49.04
79230;BME280;68663;49.122;17.544;2023-05-07T04:47:38;99554.94;;;23.42;48.98
79230;BME280;68663;49.122;17.544;2023-05-07T04:50:04;99558.16;;;23.40;49.07
79230;BME280;68663;49.122;17.544;2023-05-07T04:52:30;99559.00;;;23.37;49.26
79230;BME280;68663;49.122;17.544;2023-05-07T04:54:56;99563.00;;;23.40;49.15
79230;BME280;68663;49.122;17.544;2023-05-07T04:57:21;99565.81;;;23.43;48.96
79230;BME280;68663;49.122;17.544;2023-05-07T04:59:46;99567.81;;;23.43;49.23
79230;BME280;68663;49.122;17.544;2023-05-07T05:02:12;99577.50;;;23.42;48.92
79230;BME280;68663;49.122;17.544;2023-05-07T05:04:38;99579.13;;;23.39;49.23
79230;BME280;68663;49.122;17.544;2023-05-07T05:07:03;99585.56;;;23.40;49.17
79230;BME280;68663;49.122;17.544;2023-05-07T05:09:29;99581.56;;;23.41;49.19
79230;BME280;68663;49.122;17.544;2023-05-07T05:11:55;99587.56;;;23.43;49.03
79230;BME280;68663;49.122;17.544;2023-05-07T05:14:20;99588.75;;;23.45;48.97
79230;BME280;68663;49.122;17.544;2023-05-07T05:16:46;99588.34;;;23.47;49.14
79230;BME280;68663;49.122;17.544;2023-05-07T05:19:11;99587.91;;;23.48;48.87
79230;BME280;68663;49.122;17.544;2023-05-07T05:21:37;99592.75;;;23.48;48.95
79230;BME280;68663;49.122;17.544;2023-05-07T05:24:02;99589.53;;;23.49;48.97
79230;BME280;68663;49.122;17.544;2023-05-07T05:26:28;99595.16;;;23.49;49.08
79230;BME280;68663;49.122;17.544;2023-05-07T05:28:54;99590.69;;;23.52;49.01
79230;BME280;68663;49.122;17.544;2023-05-07T05:31:19;99588.28;;;23.50;49.06
79230;BME280;68663;49.122;17.544;2023-05-07T05:33:45;99599.97;;;23.52;49.21
79230;BME280;68663;49.122;17.544;2023-05-07T05:36:10;99606.03;;;23.55;49.06
79230;BME280;68663;49.122;17.544;2023-05-07T05:38:37;99596.72;;;23.58;49.04
79230;BME280;68663;49.122;17.544;2023-05-07T05:41:02;99596.72;;;23.58;49.12
79230;BME280;68663;49.122;17.544;2023-05-07T05:43:28;99599.91;;;23.60;48.98
79230;BME280;68663;49.122;17.544;2023-05-07T05:45:54;99601.50;;;23.61;49.27
79230;BME280;68663;49.122;17.544;2023-05-07T05:48:20;99594.22;;;23.63;49.15
79230;BME280;68663;49.122;17.544;2023-05-07T05:50:45;99605.09;;;23.65;49.01
79230;BME280;68663;49.122;17.544;2023-05-07T05:53:11;99599.03;;;23.66;48.89
79230;BME280;68663;49.122;17.544;2023-05-07T05:55:36;99603.06;;;23.65;49.14
79230;BME280;68663;49.122;17.544;2023-05-07T05:58:02;99596.59;;;23.68;49.09
79230;BME280;68663;49.122;17.544;2023-05-07T06:00:28;99603.66;;;23.83;48.89
79230;BME280;68663;49.122;17.544;2023-05-07T06:02:53;99603.13;;;23.92;48.75
79230;BME280;68663;49.122;17.544;2023-05-07T06:05:18;99602.34;;;23.92;48.60
79230;BME280;68663;49.122;17.544;2023-05-07T06:07:44;99608.75;;;23.96;48.53
79230;BME280;68663;49.122;17.544;2023-05-07T06:10:10;99605.88;;;23.99;48.38
79230;BME280;68663;49.122;17.544;2023-05-07T06:12:35;99613.13;;;24.00;48.41
79230;BME280;68663;49.122;17.544;2023-05-07T06:15:01;99600.63;;;23.98;48.46
79230;BME280;68663;49.122;17.544;2023-05-07T06:17:26;99610.63;;;24.06;48.57
79230;BME280;68663;49.122;17.544;2023-05-07T06:19:52;99609.66;;;24.16;48.41
79230;BME280;68663;49.122;17.544;2023-05-07T06:22:17;99615.00;;;24.10;48.21
79230;BME280;68663;49.122;17.544;2023-05-07T06:24:43;99612.59;;;24.09;48.44
79230;BME280;68663;49.122;17.544;2023-05-07T06:27:08;99605.78;;;24.06;48.36
79230;BME280;68663;49.122;17.544;2023-05-07T06:29:34;99604.16;;;24.05;48.67
79230;BME280;68663;49.122;17.544;2023-05-07T06:32:13;99610.56;;;24.09;48.87
79230;BME280;68663;49.122;17.544;2023-05-07T06:34:39;99604.91;;;24.09;48.61
79230;BME280;68663;49.122;17.544;2023-05-07T06:37:06;99611.75;;;24.12;49.64
79230;BME280;68663;49.122;17.544;2023-05-07T06:39:32;99609.66;;;24.16;50.27
79230;BME280;68663;49.122;17.544;2023-05-07T06:41:58;99612.78;;;24.25;50.17
79230;BME280;68663;49.122;17.544;2023-05-07T06:44:23;99606.31;;;24.25;49.62
79230;BME280;68663;49.122;17.544;2023-05-07T06:46:49;99609.16;;;24.28;49.92
79230;BME280;68663;49.122;17.544;2023-05-07T06:49:14;99610.31;;;24.31;50.28
79230;BME280;68663;49.122;17.544;2023-05-07T06:51:40;99613.94;;;24.31;49.98
79230;BME280;68663;49.122;17.544;2023-05-07T06:54:05;99614.38;;;24.30;49.86
79230;BME280;68663;49.122;17.544;2023-05-07T06:56:32;99623.56;;;24.37;50.17
79230;BME280;68663;49.122;17.544;2023-05-07T06:58:57;99622.16;;;24.49;49.63
79230;BME280;68663;49.122;17.544;2023-05-07T07:01:22;99613.78;;;24.42;49.77
79230;BME280;68663;49.122;17.544;2023-05-07T07:03:48;99623.94;;;24.39;49.57
79230;BME280;68663;49.122;17.544;2023-05-07T07:06:13;99619.88;;;24.40;49.49
79230;BME280;68663;49.122;17.544;2023-05-07T07:08:39;99618.28;;;24.39;49.66
79230;BME280;68663;49.122;17.544;2023-05-07T07:11:05;99617.38;;;24.46;49.35
79230;BME280;68663;49.122;17.544;2023-05-07T07:13:31;99619.78;;;24.48;49.24
79230;BME280;68663;49.122;17.544;2023-05-07T07:15:57;99619.78;;;24.48;48.80
79230;BME280;68663;49.122;17.544;2023-05-07T07:18:22;99620.56;;;24.48;47.87
79230;BME280;68663;49.122;17.544;2023-05-07T07:20:47;99631.88;;;24.48;46.39
79230;BME280;68663;49.122;17.544;2023-05-07T07:23:13;99627.03;;;24.49;46.01
79230;BME280;68663;49.122;17.544;2023-05-07T07:25:39;99639.94;;;24.50;46.25
79230;BME280;68663;49.122;17.544;2023-05-07T07:28:05;99632.56;;;24.56;46.21
79230;BME280;68663;49.122;17.544;2023-05-07T07:30:30;99634.91;;;24.61;46.08
79230;BME280;68663;49.122;17.544;2023-05-07T07:32:56;99637.78;;;24.57;46.56
79230;BME280;68663;49.122;17.544;2023-05-07T07:35:27;99641.91;;;24.53;46.50
79230;BME280;68663;49.122;17.544;2023-05-07T07:37:53;99645.09;;;24.55;46.62
79230;BME280;68663;49.122;17.544;2023-05-07T07:40:18;99638.22;;;24.56;47.18
79230;BME280;68663;49.122;17.544;2023-05-07T07:42:43;99646.69;;;24.56;47.23
79230;BME280;68663;49.122;17.544;2023-05-07T07:45:10;99655.94;;;24.60;47.54
79230;BME280;68663;49.122;17.544;2023-05-07T07:47:35;99642.59;;;24.60;47.94
79230;BME280;68663;49.122;17.544;2023-05-07T07:50:01;99649.41;;;24.63;47.80
79230;BME280;68663;49.122;17.544;2023-05-07T07:52:26;99657.47;;;24.64;47.62
79230;BME280;68663;49.122;17.544;2023-05-07T07:54:51;99661.47;;;24.67;47.87
79230;BME280;68663;49.122;17.544;2023-05-07T07:57:17;99660.63;;;24.70;47.61
79230;BME280;68663;49.122;17.544;2023-05-07T07:59:43;99668.63;;;24.75;47.30
79230;BME280;68663;49.122;17.544;2023-05-07T08:02:08;99674.38;;;24.68;47.37
79230;BME280;68663;49.122;17.544;2023-05-07T08:04:34;99679.66;;;24.66;47.72
79230;BME280;68663;49.122;17.544;2023-05-07T08:07:00;99672.41;;;24.65;47.57
79230;BME280;68663;49.122;17.544;2023-05-07T08:09:26;99680.09;;;24.64;47.40
79230;BME280;68663;49.122;17.544;2023-05-07T08:11:51;99676.84;;;24.66;47.60
79230;BME280;68663;49.122;17.544;2023-05-07T08:14:17;99687.72;;;24.67;47.55
79230;BME280;68663;49.122;17.544;2023-05-07T08:16:42;99682.00;;;24.71;47.78
79230;BME280;68663;49.122;17.544;2023-05-07T08:19:07;99684.91;;;24.67;48.17
79230;BME280;68663;49.122;17.544;2023-05-07T08:21:34;99678.00;;;24.68;48.55
79230;BME280;68663;49.122;17.544;2023-05-07T08:24:00;99680.41;;;24.70;48.53
79230;BME280;68663;49.122;17.544;2023-05-07T08:26:25;99685.22;;;24.73;48.29
79230;BME280;68663;49.122;17.544;2023-05-07T08:28:50;99680.41;;;24.70;48.62
79230;BME280;68663;49.122;17.544;2023-05-07T08:31:16;99683.13;;;24.77;48.45
79230;BME280;68663;49.122;17.544;2023-05-07T08:33:41;99683.25;;;24.70;48.21
79230;BME280;68663;49.122;17.544;2023-05-07T08:36:07;99684.84;;;24.71;48.29
79230;BME280;68663;49.122;17.544;2023-05-07T08:38:32;99680.78;;;24.72;48.25
79230;BME280;68663;49.122;17.544;2023-05-07T08:40:58;99677.16;;;24.71;48.18
79230;BME280;68663;49.122;17.544;2023-05-07T08:43:26;99674.75;;;24.70;48.12
79230;BME280;68663;49.122;17.544;2023-05-07T08:45:53;99685.22;;;24.73;47.91
79230;BME280;68663;49.122;17.544;2023-05-07T08:48:21;99681.47;;;24.80;47.71
79230;BME280;68663;49.122;17.544;2023-05-07T08:50:48;99689.16;;;24.79;47.70
79230;BME280;68663;49.122;17.544;2023-05-07T08:53:16;99687.19;;;24.76;47.77
79230;BME280;68663;49.122;17.544;2023-05-07T08:55:41;99686.06;;;24.70;47.74
79230;BME280;68663;49.122;17.544;2023-05-07T08:58:07;99688.53;;;24.68;47.80
79230;BME280;68663;49.122;17.544;2023-05-07T09:00:32;99682.13;;;24.64;47.82
79230;BME280;68663;49.122;17.544;2023-05-07T09:02:58;99691.41;;;24.64;47.97
79230;BME280;68663;49.122;17.544;2023-05-07T09:05:23;99688.25;;;24.59;48.04
79230;BME280;68663;49.122;17.544;2023-05-07T09:07:48;99683.44;;;24.56;48.11
79230;BME280;68663;49.122;17.544;2023-05-07T09:10:15;99686.69;;;24.54;48.07
79230;BME280;68663;49.122;17.544;2023-05-07T09:12:41;99683.56;;;24.49;48.14
79230;BME280;68663;49.122;17.544;2023-05-07T09:15:07;99682.75;;;24.48;48.10
79230;BME280;68663;49.122;17.544;2023-05-07T09:17:32;99696.47;;;24.50;48.33
79230;BME280;68663;49.122;17.544;2023-05-07T09:20:05;99696.50;;;24.46;47.97
79230;BME280;68663;49.122;17.544;2023-05-07T09:22:36;99694.84;;;24.49;48.07
79230;BME280;68663;49.122;17.544;2023-05-07T09:25:02;99696.50;;;24.46;48.03
79230;BME280;68663;49.122;17.544;2023-05-07T09:27:27;99694.09;;;24.44;48.12
79230;BME280;68663;49.122;17.544;2023-05-07T09:29:53;99697.72;;;24.45;48.29
79230;BME280;68663;49.122;17.544;2023-05-07T09:32:18;99699.38;;;24.42;47.94
79230;BME280;68663;49.122;17.544;2023-05-07T09:34:44;99701.00;;;24.43;48.26
79230;BME280;68663;49.122;17.544;2023-05-07T09:37:12;99705.47;;;24.41;48.10
79230;BME280;68663;49.122;17.544;2023-05-07T09:39:45;99699.00;;;24.40;48.34
79230;BME280;68663;49.122;17.544;2023-05-07T09:42:12;99695.81;;;24.38;48.34
79230;BME280;68663;49.122;17.544;2023-05-07T09:44:38;99700.22;;;24.39;48.13
79230;BME280;68663;49.122;17.544;2023-05-07T09:47:07;99698.63;;;24.38;48.13
79230;BME280;68663;49.122;17.544;2023-05-07T09:49:37;99703.06;;;24.39;48.32
79230;BME280;68663;49.122;17.544;2023-05-07T09:52:04;99691.75;;;24.39;48.02
79230;BME280;68663;49.122;17.544;2023-05-07T09:54:32;99695.81;;;24.38;48.05
79230;BME280;68663;49.122;17.544;2023-05-07T09:56:59;99691.38;;;24.37;48.01
79230;BME280;68663;49.122;17.544;2023-05-07T09:59:27;99690.16;;;24.38;47.99
79230;BME280;68663;49.122;17.544;2023-05-07T10:01:57;99703.91;;;24.36;48.14
79230;BME280;68663;49.122;17.544;2023-05-07T10:04:24;99697.03;;;24.37;48.09
79230;BME280;68663;49.122;17.544;2023-05-07T10:06:50;99695.84;;;24.35;48.13
79230;BME280;68663;49.122;17.544;2023-05-07T10:09:16;99699.09;;;24.33;47.92
79230;BME280;68663;49.122;17.544;2023-05-07T10:11:42;99702.31;;;24.35;47.96
79230;BME280;68663;49.122;17.544;2023-05-07T10:14:09;99715.25;;;24.33;48.02
79230;BME280;68663;49.122;17.544;2023-05-07T10:16:36;99714.47;;;24.32;48.04
79230;BME280;68663;49.122;17.544;2023-05-07T10:19:06;99716.84;;;24.34;47.73
79230;BME280;68663;49.122;17.544;2023-05-07T10:21:36;99729.00;;;24.31;47.84
79230;BME280;68663;49.122;17.544;2023-05-07T10:24:09;99733.88;;;24.27;48.02
79230;BME280;68663;49.122;17.544;2023-05-07T10:26:41;99727.03;;;24.28;48.10
79230;BME280;68663;49.122;17.544;2023-05-07T10:29:27;99729.84;;;24.24;48.01
79230;BME280;68663;49.122;17.544;2023-05-07T10:32:33;99734.25;;;24.25;48.10
79230;BME280;68663;49.122;17.544;2023-05-07T10:35:04;99729.84;;;24.24;48.01
79230;BME280;68663;49.122;17.544;2023-05-07T10:37:31;99740.38;;;24.20;48.19
79230;BME280;68663;49.122;17.544;2023-05-07T10:39:58;99741.13;;;24.24;48.31
79230;BME280;68663;49.122;17.544;2023-05-07T10:42:24;99742.78;;;24.22;48.33
79230;BME280;68663;49.122;17.544;2023-05-07T10:44:49;99737.94;;;24.22;48.15
79230;BME280;68663;49.122;17.544;2023-05-07T10:47:16;99728.66;;;24.22;48.18
79230;BME280;68663;49.122;17.544;2023-05-07T10:52:16;99749.25;;;24.22;48.25
79230;BME280;68663;49.122;17.544;2023-05-07T10:54:43;99745.19;;;24.23;48.46
79230;BME280;68663;49.122;17.544;2023-05-07T10:59:53;99741.13;;;24.24;48.38
79230;BME280;68663;49.122;17.544;2023-05-07T11:02:19;99748.00;;;24.23;48.36
79230;BME280;68663;49.122;17.544;2023-05-07T11:04:44;99746.78;;;24.24;48.37
79230;BME280;68663;49.122;17.544;2023-05-07T11:07:26;99755.28;;;24.24;47.98
79230;BME280;68663;49.122;17.544;2023-05-07T11:09:59;99761.34;;;24.23;48.21
79230;BME280;68663;49.122;17.544;2023-05-07T11:15:01;99767.41;;;24.21;48.14
79230;BME280;68663;49.122;17.544;2023-05-07T11:17:27;99763.78;;;24.21;48.33
79230;BME280;68663;49.122;17.544;2023-05-07T11:19:57;99762.97;;;24.20;48.40
79230;BME280;68663;49.122;17.544;2023-05-07T11:24:59;99767.03;;;24.19;48.09
79230;BME280;68663;49.122;17.544;2023-05-07T11:27:26;99752.16;;;24.15;48.19
79230;BME280;68663;49.122;17.544;2023-05-07T11:29:51;99767.88;;;24.16;48.12
79230;BME280;68663;49.122;17.544;2023-05-07T11:32:23;99766.28;;;24.15;48.34
79230;BME280;68663;49.122;17.544;2023-05-07T11:34:53;99774.00;;;24.11;48.13
79230;BME280;68663;49.122;17.544;2023-05-07T11:37:20;99768.72;;;24.13;48.29
79230;BME280;68663;49.122;17.544;2023-05-07T11:39:46;99781.63;;;24.14;48.41
79230;BME280;68663;49.122;17.544;2023-05-07T11:42:32;99783.22;;;24.15;48.24
79230;BME280;68663;49.122;17.544;2023-05-07T11:44:58;99774.38;;;24.13;48.33
79230;BME280;68663;49.122;17.544;2023-05-07T11:47:23;99775.97;;;24.14;48.54
79230;BME280;68663;49.122;17.544;2023-05-07T11:49:53;99781.63;;;24.14;48.52
79230;BME280;68663;49.122;17.544;2023-05-07T11:52:21;99780.03;;;24.13;48.28
79230;BME280;68663;49.122;17.544;2023-05-07T11:54:55;99793.72;;;24.14;48.47
79230;BME280;68663;49.122;17.544;2023-05-07T11:57:22;99796.13;;;24.16;48.26
79230;BME280;68663;49.122;17.544;2023-05-07T11:59:47;99811.09;;;24.13;48.23
79230;BME280;68663;49.122;17.544;2023-05-07T12:02:17;99817.53;;;24.13;48.44
79230;BME280;68663;49.122;17.544;2023-05-07T12:04:43;99817.53;;;24.13;48.54
79230;BME280;68663;49.122;17.544;2023-05-07T12:07:12;99825.22;;;24.13;48.31
79230;BME280;68663;49.122;17.544;2023-05-07T12:09:39;99825.22;;;24.13;48.22
79230;BME280;68663;49.122;17.544;2023-05-07T12:12:05;99827.25;;;24.12;48.58
79230;BME280;68663;49.122;17.544;2023-05-07T12:14:31;99822.81;;;24.11;48.28
79230;BME280;68663;49.122;17.544;2023-05-07T12:16:58;99819.22;;;24.07;48.49
79230;BME280;68663;49.122;17.544;2023-05-07T12:19:24;99815.59;;;24.07;48.28
79230;BME280;68663;49.122;17.544;2023-05-07T12:21:50;99824.50;;;24.05;48.14
79230;BME280;68663;49.122;17.544;2023-05-07T12:24:16;99827.72;;;24.04;48.32
79230;BME280;68663;49.122;17.544;2023-05-07T12:26:41;99818.03;;;24.05;48.22
79230;BME280;68663;49.122;17.544;2023-05-07T12:29:07;99818.88;;;24.02;48.24
79230;BME280;68663;49.122;17.544;2023-05-07T12:31:34;99819.25;;;24.04;48.27
79230;BME280;68663;49.122;17.544;2023-05-07T12:33:59;99820.09;;;24.01;48.45
79230;BME280;68663;49.122;17.544;2023-05-07T12:36:25;99816.06;;;24.02;48.48
79230;BME280;68663;49.122;17.544;2023-05-07T12:38:51;99827.72;;;24.04;48.55
79230;BME280;68663;49.122;17.544;2023-05-07T12:41:16;99826.13;;;24.03;48.25
79230;BME280;68663;49.122;17.544;2023-05-07T12:43:44;99816.44;;;24.04;48.47
79230;BME280;68663;49.122;17.544;2023-05-07T12:46:11;99810.78;;;24.04;48.52
79230;BME280;68663;49.122;17.544;2023-05-07T12:48:43;99814.84;;;24.03;48.44
79230;BME280;68663;49.122;17.544;2023-05-07T12:51:09;99817.25;;;24.04;48.27
79230;BME280;68663;49.122;17.544;2023-05-07T12:53:40;99816.44;;;24.04;48.35
79230;BME280;68663;49.122;17.544;2023-05-07T12:56:08;99814.84;;;24.03;48.47
79230;BME280;68663;49.122;17.544;2023-05-07T12:58:34;99816.84;;;24.02;48.45